createdAt,value
2023-03-01T00:00:43.785Z,0.00
2023-03-01T00:01:43.798Z,0.00
2023-03-01T00:02:43.861Z,0.00
2023-03-01T00:03:43.818Z,0.00
2023-03-01T00:04:43.747Z,0.00
2023-03-01T00:05:43.726Z,0.00
2023-03-01T00:06:43.719Z,0.00
2023-03-01T00:07:43.712Z,0.00
2023-03-01T00:08:43.685Z,0.00
2023-03-01T00:09:43.711Z,0.00
2023-03-01T00:10:43.720Z,0.00
2023-03-01T00:11:43.683Z,0.00
2023-03-01T00:12:43.666Z,0.00
2023-03-01T00:13:43.648Z,0.00
2023-03-01T00:14:43.635Z,0.00
2023-03-01T00:15:43.632Z,0.00
2023-03-01T00:16:43.642Z,0.00
2023-03-01T00:17:43.615Z,0.00
2023-03-01T00:18:43.579Z,0.00
2023-03-01T00:19:43.598Z,0.00
2023-03-01T00:20:43.568Z,0.00
2023-03-01T00:21:43.564Z,0.00
2023-03-01T00:22:43.549Z,0.00
2023-03-01T00:23:43.577Z,0.00
2023-03-01T00:24:43.520Z,0.00
2023-03-01T00:25:43.512Z,0.00
2023-03-01T00:26:43.617Z,0.00
2023-03-01T00:27:43.498Z,0.00
2023-03-01T00:28:43.476Z,0.00
2023-03-01T00:29:43.500Z,0.00
2023-03-01T00:30:43.512Z,0.00
2023-03-01T00:31:43.451Z,0.00
2023-03-01T00:32:43.720Z,0.00
2023-03-01T00:33:43.466Z,0.00
2023-03-01T00:34:43.430Z,0.00
2023-03-01T00:35:43.465Z,0.00
2023-03-01T00:36:43.469Z,0.00
2023-03-01T00:37:43.501Z,0.00
2023-03-01T00:38:43.500Z,0.00
2023-03-01T00:39:43.496Z,0.00
2023-03-01T00:40:43.480Z,0.00
2023-03-01T00:41:43.658Z,0.00
2023-03-01T00:42:43.500Z,0.00
2023-03-01T00:43:43.596Z,0.00
2023-03-01T00:44:43.503Z,0.00
2023-03-01T00:45:43.549Z,0.00
2023-03-01T00:46:43.541Z,0.00
2023-03-01T00:47:43.669Z,0.00
2023-03-01T00:48:43.324Z,0.00
2023-03-01T00:49:43.371Z,0.00
2023-03-01T00:50:43.241Z,0.00
2023-03-01T00:51:43.227Z,0.00
2023-03-01T00:52:43.220Z,0.00
2023-03-01T00:53:43.224Z,0.00
2023-03-01T00:54:43.220Z,0.00
2023-03-01T00:55:43.200Z,0.00
2023-03-01T00:56:43.178Z,0.00
2023-03-01T00:57:43.178Z,0.00
2023-03-01T00:58:43.160Z,0.00
2023-03-01T00:59:43.701Z,0.00
2023-03-01T01:00:43.139Z,0.00
2023-03-01T01:01:43.160Z,0.00
2023-03-01T01:02:43.167Z,0.00
2023-03-01T01:03:43.101Z,0.00
2023-03-01T01:04:43.088Z,0.00
2023-03-01T01:05:43.110Z,0.00
2023-03-01T01:06:43.088Z,0.00
2023-03-01T01:07:43.062Z,0.00
2023-03-01T01:08:43.044Z,0.00
2023-03-01T01:09:43.566Z,0.00
2023-03-01T01:10:43.036Z,0.00
2023-03-01T01:11:43.045Z,0.00
2023-03-01T01:12:42.996Z,0.00
2023-03-01T01:13:42.995Z,0.00
2023-03-01T01:14:42.984Z,0.00
2023-03-01T01:15:43.045Z,0.00
2023-03-01T01:16:42.983Z,0.00
2023-03-01T01:17:42.961Z,0.00
2023-03-01T01:18:42.939Z,0.00
2023-03-01T01:19:42.934Z,0.00
2023-03-01T01:20:42.907Z,0.00
2023-03-01T01:21:42.929Z,0.00
2023-03-01T01:22:42.894Z,0.00
2023-03-01T01:23:42.885Z,0.00
2023-03-01T01:24:42.864Z,0.00
2023-03-01T01:25:42.862Z,0.00
2023-03-01T01:26:42.881Z,0.00
2023-03-01T01:27:42.848Z,0.00
2023-03-01T01:28:42.833Z,0.00
2023-03-01T01:29:42.955Z,0.00
2023-03-01T01:30:42.804Z,0.00
2023-03-01T01:31:42.794Z,0.00
2023-03-01T01:32:42.829Z,0.00
2023-03-01T01:33:42.785Z,0.00
2023-03-01T01:34:42.760Z,0.00
2023-03-01T01:35:42.798Z,0.00
2023-03-01T01:36:42.733Z,0.00
2023-03-01T01:37:42.750Z,0.00
2023-03-01T01:38:42.732Z,0.00
2023-03-01T01:39:42.716Z,0.00
2023-03-01T01:40:42.708Z,0.00
2023-03-01T01:41:42.689Z,0.00
2023-03-01T01:42:42.697Z,0.00
2023-03-01T01:43:42.670Z,0.00
2023-03-01T01:44:42.661Z,0.00
2023-03-01T01:45:42.644Z,0.00
2023-03-01T01:46:42.644Z,0.00
2023-03-01T01:47:42.623Z,0.00
2023-03-01T01:48:42.641Z,0.00
2023-03-01T01:49:43.020Z,0.00
2023-03-01T01:50:42.601Z,0.00
2023-03-01T01:51:42.570Z,0.00
2023-03-01T01:52:42.558Z,0.00
2023-03-01T01:53:42.561Z,0.00
2023-03-01T01:54:42.543Z,0.00
2023-03-01T01:55:42.522Z,0.00
2023-03-01T01:56:42.535Z,0.00
2023-03-01T01:57:42.514Z,0.00
2023-03-01T01:58:42.539Z,0.00
2023-03-01T01:59:42.478Z,0.00
2023-03-01T02:00:42.507Z,0.00
2023-03-01T02:01:42.470Z,0.00
2023-03-01T02:02:42.641Z,0.00
2023-03-01T02:03:42.528Z,0.00
2023-03-01T02:04:42.480Z,0.00
2023-03-01T02:05:42.430Z,0.00
2023-03-01T02:06:42.412Z,0.00
2023-03-01T02:07:42.397Z,0.00
2023-03-01T02:08:42.392Z,0.00
2023-03-01T02:09:42.398Z,0.00
2023-03-01T02:10:42.374Z,0.00
2023-03-01T02:11:42.350Z,0.00
2023-03-01T02:12:42.357Z,0.00
2023-03-01T02:13:42.343Z,0.00
2023-03-01T02:14:42.351Z,0.00
2023-03-01T02:15:42.308Z,0.00
2023-03-01T02:16:42.304Z,0.00
2023-03-01T02:17:42.303Z,0.00
2023-03-01T02:18:42.343Z,0.00
2023-03-01T02:19:42.340Z,0.00
2023-03-01T02:20:42.315Z,0.00
2023-03-01T02:21:42.335Z,0.00
2023-03-01T02:22:42.347Z,0.00
2023-03-01T02:23:42.385Z,0.00
2023-03-01T02:24:42.286Z,0.00
2023-03-01T02:25:42.275Z,0.00
2023-03-01T02:26:42.244Z,0.00
2023-03-01T02:27:42.387Z,0.00
2023-03-01T02:28:42.349Z,0.00
2023-03-01T02:29:42.238Z,0.00
2023-03-01T02:30:42.233Z,0.00
2023-03-01T02:31:42.372Z,0.00
2023-03-01T02:32:42.360Z,0.00
2023-03-01T02:33:42.430Z,0.00
2023-03-01T02:34:42.158Z,0.00
2023-03-01T02:35:42.119Z,0.00
2023-03-01T02:36:42.136Z,0.00
2023-03-01T02:37:42.067Z,0.00
2023-03-01T02:38:42.072Z,0.00
2023-03-01T02:39:42.071Z,0.00
2023-03-01T02:40:42.051Z,0.00
2023-03-01T02:41:42.041Z,0.00
2023-03-01T02:42:42.047Z,0.00
2023-03-01T02:43:42.007Z,0.00
2023-03-01T02:44:42.007Z,0.00
2023-03-01T02:45:41.988Z,0.00
2023-03-01T02:46:42.017Z,0.00
2023-03-01T02:47:41.957Z,0.00
2023-03-01T02:48:41.977Z,0.00
2023-03-01T02:49:41.939Z,0.00
2023-03-01T02:50:41.928Z,0.00
2023-03-01T02:51:41.925Z,0.00
2023-03-01T02:52:42.209Z,0.00
2023-03-01T02:53:41.894Z,0.00
2023-03-01T02:54:41.902Z,0.00
2023-03-01T02:55:41.876Z,0.00
2023-03-01T02:56:41.871Z,0.00
2023-03-01T02:57:42.058Z,0.00
2023-03-01T02:58:41.865Z,0.00
2023-03-01T02:59:41.855Z,0.00
2023-03-01T03:00:41.869Z,0.00
2023-03-01T03:01:41.816Z,0.00
2023-03-01T03:02:41.829Z,0.00
2023-03-01T03:03:41.867Z,0.00
2023-03-01T03:04:41.786Z,0.00
2023-03-01T03:05:41.780Z,0.00
2023-03-01T03:06:41.757Z,0.00
2023-03-01T03:07:41.763Z,0.00
2023-03-01T03:08:42.091Z,0.00
2023-03-01T03:09:41.716Z,0.00
2023-03-01T03:10:41.716Z,0.00
2023-03-01T03:11:41.729Z,0.00
2023-03-01T03:12:41.697Z,0.00
2023-03-01T03:13:41.693Z,0.00
2023-03-01T03:14:41.686Z,0.00
2023-03-01T03:15:41.660Z,0.00
2023-03-01T03:16:41.693Z,0.00
2023-03-01T03:17:41.678Z,0.00
2023-03-01T03:18:41.636Z,0.00
2023-03-01T03:19:41.613Z,0.00
2023-03-01T03:20:41.623Z,0.00
2023-03-01T03:21:41.584Z,0.00
2023-03-01T03:22:41.584Z,0.00
2023-03-01T03:23:41.574Z,0.00
2023-03-01T03:24:41.583Z,0.00
2023-03-01T03:25:41.544Z,0.00
2023-03-01T03:26:41.556Z,0.00
2023-03-01T03:27:41.532Z,0.00
2023-03-01T03:28:41.541Z,0.00
2023-03-01T03:29:41.491Z,0.00
2023-03-01T03:30:41.508Z,0.00
2023-03-01T03:31:41.549Z,0.00
2023-03-01T03:32:41.483Z,0.00
2023-03-01T03:33:41.473Z,0.00
2023-03-01T03:34:41.518Z,0.00
2023-03-01T03:35:41.462Z,0.00
2023-03-01T03:36:41.423Z,0.00
2023-03-01T03:37:41.411Z,0.00
2023-03-01T03:38:41.427Z,0.00
2023-03-01T03:39:41.383Z,0.00
2023-03-01T03:40:41.404Z,0.00
2023-03-01T03:41:41.371Z,0.00
2023-03-01T03:42:41.373Z,0.00
2023-03-01T03:43:41.346Z,0.00
2023-03-01T03:44:41.359Z,0.00
2023-03-01T03:45:41.602Z,0.00
2023-03-01T03:46:41.328Z,0.00
2023-03-01T03:47:41.334Z,0.00
2023-03-01T03:48:41.311Z,0.00
2023-03-01T03:49:41.279Z,0.00
2023-03-01T03:50:41.301Z,0.00
2023-03-01T03:51:41.556Z,0.00
2023-03-01T03:52:41.252Z,0.00
2023-03-01T03:53:41.256Z,0.00
2023-03-01T03:54:41.234Z,0.00
2023-03-01T03:55:41.264Z,0.00
2023-03-01T03:56:41.219Z,0.00
2023-03-01T03:57:41.204Z,0.00
2023-03-01T03:58:41.382Z,0.00
2023-03-01T03:59:41.169Z,0.00
2023-03-01T04:00:41.199Z,0.00
2023-03-01T04:01:41.351Z,0.00
2023-03-01T04:02:41.213Z,0.00
2023-03-01T04:03:41.145Z,0.00
2023-03-01T04:04:41.158Z,0.00
2023-03-01T04:05:41.181Z,0.00
2023-03-01T04:06:41.284Z,0.00
2023-03-01T04:07:41.108Z,0.00
2023-03-01T04:08:41.109Z,0.00
2023-03-01T04:09:41.110Z,0.00
2023-03-01T04:10:41.075Z,0.00
2023-03-01T04:11:41.073Z,0.00
2023-03-01T04:12:41.038Z,0.00
2023-03-01T04:13:41.172Z,0.00
2023-03-01T04:14:41.049Z,0.00
2023-03-01T04:15:41.018Z,0.00
2023-03-01T04:16:41.165Z,0.00
2023-03-01T04:17:41.058Z,0.00
2023-03-01T04:18:41.070Z,0.00
2023-03-01T04:19:41.065Z,0.00
2023-03-01T04:20:41.088Z,0.00
2023-03-01T04:21:41.099Z,0.00
2023-03-01T04:22:41.035Z,0.00
2023-03-01T04:23:41.035Z,0.00
2023-03-01T04:24:41.153Z,0.00
2023-03-01T04:25:41.166Z,0.00
2023-03-01T04:26:41.164Z,0.00
2023-03-01T04:27:40.959Z,0.00
2023-03-01T04:28:41.099Z,0.00
2023-03-01T04:29:40.926Z,0.00
2023-03-01T04:30:40.931Z,0.00
2023-03-01T04:31:40.831Z,0.00
2023-03-01T04:32:40.868Z,0.00
2023-03-01T04:33:40.825Z,0.00
2023-03-01T04:34:40.805Z,0.00
2023-03-01T04:35:40.866Z,0.00
2023-03-01T04:36:40.883Z,0.00
2023-03-01T04:37:40.758Z,0.00
2023-03-01T04:38:40.769Z,0.00
2023-03-01T04:39:40.738Z,0.00
2023-03-01T04:40:40.729Z,0.00
2023-03-01T04:41:40.715Z,0.00
2023-03-01T04:42:40.714Z,0.00
2023-03-01T04:43:40.755Z,0.00
2023-03-01T04:44:40.686Z,0.00
2023-03-01T04:45:40.739Z,0.00
2023-03-01T04:46:40.668Z,0.00
2023-03-01T04:47:40.656Z,0.00
2023-03-01T04:48:40.651Z,0.00
2023-03-01T04:49:40.647Z,0.00
2023-03-01T04:50:40.634Z,0.00
2023-03-01T04:51:40.610Z,0.00
2023-03-01T04:52:40.614Z,0.00
2023-03-01T04:53:40.622Z,0.00
2023-03-01T04:54:40.586Z,0.00
2023-03-01T04:55:40.554Z,0.00
2023-03-01T04:56:40.554Z,0.00
2023-03-01T04:57:40.546Z,0.00
2023-03-01T04:58:40.547Z,0.00
2023-03-01T04:59:40.533Z,0.00
2023-03-01T05:00:40.520Z,0.00
2023-03-01T05:01:40.488Z,0.00
2023-03-01T05:02:40.513Z,0.00
2023-03-01T05:03:42.056Z,0.00
2023-03-01T05:04:40.520Z,0.00
2023-03-01T05:05:40.445Z,0.00
2023-03-01T05:06:40.458Z,0.00
2023-03-01T05:07:40.423Z,0.00
2023-03-01T05:08:40.430Z,0.00
2023-03-01T05:09:40.419Z,0.00
2023-03-01T05:10:40.415Z,0.00
2023-03-01T05:11:40.385Z,0.00
2023-03-01T05:12:40.385Z,0.00
2023-03-01T05:13:40.545Z,0.00
2023-03-01T05:14:40.383Z,0.00
2023-03-01T05:15:40.422Z,0.00
2023-03-01T05:16:40.346Z,0.00
2023-03-01T05:17:40.311Z,0.00
2023-03-01T05:18:40.346Z,0.00
2023-03-01T05:19:40.296Z,0.00
2023-03-01T05:20:40.304Z,0.00
2023-03-01T05:21:40.296Z,0.00
2023-03-01T05:22:40.276Z,0.00
2023-03-01T05:23:40.251Z,0.00
2023-03-01T05:24:40.255Z,0.00
2023-03-01T05:25:40.240Z,0.00
2023-03-01T05:26:40.812Z,0.00
2023-03-01T05:27:41.040Z,0.00
2023-03-01T05:28:40.208Z,0.00
2023-03-01T05:29:40.192Z,0.00
2023-03-01T05:30:40.191Z,0.00
2023-03-01T05:31:40.192Z,0.00
2023-03-01T05:32:40.160Z,0.00
2023-03-01T05:33:40.163Z,0.00
2023-03-01T05:34:40.166Z,0.00
2023-03-01T05:35:40.159Z,0.00
2023-03-01T05:36:40.115Z,0.00
2023-03-01T05:37:40.112Z,0.00
2023-03-01T05:38:40.101Z,0.00
2023-03-01T05:39:40.084Z,0.00
2023-03-01T05:40:40.105Z,0.00
2023-03-01T05:41:40.054Z,0.00
2023-03-01T05:42:40.081Z,0.00
2023-03-01T05:43:40.043Z,0.00
2023-03-01T05:44:40.050Z,0.00
2023-03-01T05:45:40.097Z,0.00
2023-03-01T05:46:40.022Z,0.00
2023-03-01T05:47:40.048Z,0.00
2023-03-01T05:48:40.014Z,4.00
2023-03-01T05:49:40.023Z,4.00
2023-03-01T05:50:39.970Z,0.00
2023-03-01T05:51:39.952Z,0.00
2023-03-01T05:52:39.942Z,4.00
2023-03-01T05:53:39.960Z,0.00
2023-03-01T05:54:39.952Z,4.00
2023-03-01T05:55:39.909Z,4.00
2023-03-01T05:56:39.897Z,8.00
2023-03-01T05:57:39.903Z,4.00
2023-03-01T05:58:39.883Z,8.00
2023-03-01T05:59:39.884Z,8.00
2023-03-01T06:00:39.860Z,8.00
2023-03-01T06:01:39.870Z,12.00
2023-03-01T06:02:39.830Z,12.00
2023-03-01T06:03:39.824Z,12.00
2023-03-01T06:04:39.912Z,16.00
2023-03-01T06:05:39.809Z,16.00
2023-03-01T06:06:39.800Z,20.00
2023-03-01T06:07:40.589Z,20.00
2023-03-01T06:08:39.780Z,24.00
2023-03-01T06:09:39.759Z,28.00
2023-03-01T06:10:39.787Z,32.00
2023-03-01T06:11:39.747Z,40.00
2023-03-01T06:12:39.726Z,40.00
2023-03-01T06:13:39.735Z,48.00
2023-03-01T06:14:39.705Z,52.00
2023-03-01T06:15:39.729Z,56.00
2023-03-01T06:16:39.716Z,64.00
2023-03-01T06:17:39.699Z,72.00
2023-03-01T06:18:39.654Z,76.00
2023-03-01T06:19:39.660Z,84.00
2023-03-01T06:20:39.653Z,88.00
2023-03-01T06:21:39.641Z,96.00
2023-03-01T06:22:39.665Z,104.00
2023-03-01T06:23:39.613Z,112.00
2023-03-01T06:24:39.594Z,120.00
2023-03-01T06:25:39.605Z,132.00
2023-03-01T06:26:39.568Z,140.00
2023-03-01T06:27:39.610Z,148.00
2023-03-01T06:28:39.551Z,148.00
2023-03-01T06:29:41.740Z,160.00
2023-03-01T06:30:39.529Z,168.00
2023-03-01T06:31:39.549Z,180.00
2023-03-01T06:32:39.519Z,188.00
2023-03-01T06:33:39.520Z,196.00
2023-03-01T06:34:39.895Z,204.00
2023-03-01T06:35:39.525Z,212.00
2023-03-01T06:36:39.462Z,220.00
2023-03-01T06:38:32.392Z,236.00
2023-03-01T06:39:32.384Z,248.00
2023-03-01T06:40:32.290Z,256.00
2023-03-01T06:41:32.263Z,264.00
2023-03-01T06:42:32.252Z,272.00
2023-03-01T06:43:32.368Z,280.00
2023-03-01T06:44:32.231Z,292.00
2023-03-01T06:45:32.232Z,300.00
2023-03-01T06:46:32.641Z,308.00
2023-03-01T06:47:32.201Z,316.00
2023-03-01T06:48:32.201Z,320.00
2023-03-01T06:49:32.172Z,332.00
2023-03-01T06:50:32.233Z,340.00
2023-03-01T06:51:32.149Z,348.00
2023-03-01T06:52:32.142Z,352.00
2023-03-01T06:53:32.113Z,364.00
2023-03-01T06:54:32.153Z,368.00
2023-03-01T06:55:32.097Z,380.00
2023-03-01T06:56:32.494Z,384.00
2023-03-01T06:57:32.067Z,392.00
2023-03-01T06:58:32.600Z,404.00
2023-03-01T06:59:32.608Z,408.00
2023-03-01T07:00:32.234Z,416.00
2023-03-01T07:01:32.044Z,420.00
2023-03-01T07:02:32.069Z,432.00
2023-03-01T07:03:37.239Z,440.00
2023-03-01T07:04:31.996Z,444.00
2023-03-01T07:05:31.996Z,452.00
2023-03-01T07:06:32.520Z,456.00
2023-03-01T07:07:32.036Z,468.00
2023-03-01T07:08:32.067Z,472.00
2023-03-01T07:09:31.955Z,476.00
2023-03-01T07:10:31.963Z,488.00
2023-03-01T07:11:31.983Z,492.00
2023-03-01T07:12:31.917Z,500.00
2023-03-01T07:13:31.924Z,504.00
2023-03-01T07:14:31.894Z,512.00
2023-03-01T07:15:31.904Z,516.00
2023-03-01T07:16:32.262Z,524.00
2023-03-01T07:17:31.882Z,528.00
2023-03-01T07:18:31.857Z,536.00
2023-03-01T07:19:31.896Z,544.00
2023-03-01T07:20:31.824Z,544.00
2023-03-01T07:21:31.833Z,552.00
2023-03-01T07:22:31.808Z,560.00
2023-03-01T07:23:31.816Z,564.00
2023-03-01T07:24:31.774Z,568.00
2023-03-01T07:25:31.783Z,576.00
2023-03-01T07:26:32.172Z,580.00
2023-03-01T07:27:31.752Z,588.00
2023-03-01T07:28:31.742Z,592.00
2023-03-01T07:29:31.766Z,600.00
2023-03-01T07:30:31.745Z,600.00
2023-03-01T07:31:31.717Z,608.00
2023-03-01T07:32:31.803Z,612.00
2023-03-01T07:33:31.693Z,616.00
2023-03-01T07:34:31.673Z,620.00
2023-03-01T07:35:31.706Z,624.00
2023-03-01T07:36:31.976Z,632.00
2023-03-01T07:37:31.662Z,636.00
2023-03-01T07:38:31.913Z,640.00
2023-03-01T07:39:31.637Z,644.00
2023-03-01T07:40:31.602Z,648.00
2023-03-01T07:41:31.605Z,652.00
2023-03-01T07:42:31.617Z,652.00
2023-03-01T07:43:31.603Z,660.00
2023-03-01T07:44:31.589Z,664.00
2023-03-01T07:45:31.580Z,668.00
2023-03-01T07:46:31.823Z,672.00
2023-03-01T07:47:31.548Z,676.00
2023-03-01T07:48:31.554Z,676.00
2023-03-01T07:49:31.528Z,684.00
2023-03-01T07:50:31.536Z,684.00
2023-03-01T07:51:31.497Z,692.00
2023-03-01T07:52:31.489Z,696.00
2023-03-01T07:53:31.477Z,700.00
2023-03-01T07:54:31.465Z,700.00
2023-03-01T07:55:31.438Z,708.00
2023-03-01T07:56:31.812Z,712.00
2023-03-01T07:57:31.429Z,716.00
2023-03-01T07:58:31.409Z,720.00
2023-03-01T07:59:31.398Z,724.00
2023-03-01T08:00:31.430Z,724.00
2023-03-01T08:01:31.468Z,728.00
2023-03-01T08:02:31.349Z,732.00
2023-03-01T08:03:31.360Z,736.00
2023-03-01T08:04:31.352Z,740.00
2023-03-01T08:05:31.358Z,740.00
2023-03-01T08:06:31.766Z,748.00
2023-03-01T08:07:31.307Z,752.00
2023-03-01T08:08:31.296Z,760.00
2023-03-01T08:09:31.276Z,764.00
2023-03-01T08:10:31.270Z,768.00
2023-03-01T08:11:31.358Z,776.00
2023-03-01T08:12:31.246Z,780.00
2023-03-01T08:13:31.267Z,780.00
2023-03-01T08:14:31.255Z,788.00
2023-03-01T08:15:31.241Z,792.00
2023-03-01T08:16:31.586Z,796.00
2023-03-01T08:17:31.204Z,804.00
2023-03-01T08:18:31.202Z,808.00
2023-03-01T08:19:31.184Z,812.00
2023-03-01T08:20:31.170Z,820.00
2023-03-01T08:21:31.155Z,828.00
2023-03-01T08:22:31.132Z,836.00
2023-03-01T08:23:31.132Z,844.00
2023-03-01T08:24:31.137Z,848.00
2023-03-01T08:25:31.102Z,856.00
2023-03-01T08:26:31.429Z,860.00
2023-03-01T08:27:31.089Z,868.00
2023-03-01T08:28:31.049Z,872.00
2023-03-01T08:29:31.063Z,880.00
2023-03-01T08:30:31.076Z,888.00
2023-03-01T08:31:31.081Z,896.00
2023-03-01T08:32:31.036Z,908.00
2023-03-01T08:33:31.075Z,916.00
2023-03-01T08:34:31.007Z,920.00
2023-03-01T08:35:31.012Z,928.00
2023-03-01T08:36:31.460Z,932.00
2023-03-01T08:37:30.979Z,940.00
2023-03-01T08:38:30.951Z,944.00
2023-03-01T08:39:30.968Z,948.00
2023-03-01T08:40:30.925Z,952.00
2023-03-01T08:41:30.941Z,960.00
2023-03-01T08:42:30.976Z,960.00
2023-03-01T08:43:30.929Z,968.00
2023-03-01T08:44:30.886Z,976.00
2023-03-01T08:45:30.925Z,980.00
2023-03-01T08:46:31.308Z,988.00
2023-03-01T08:47:30.888Z,992.00
2023-03-01T08:48:30.848Z,996.00
2023-03-01T08:49:30.853Z,1004.00
2023-03-01T08:50:30.824Z,1012.00
2023-03-01T08:51:30.820Z,1012.00
2023-03-01T08:52:30.820Z,1020.00
2023-03-01T08:53:30.832Z,1028.00
2023-03-01T08:54:30.780Z,1028.00
2023-03-01T08:55:30.777Z,1036.00
2023-03-01T08:56:30.993Z,1036.00
2023-03-01T08:57:30.754Z,1036.00
2023-03-01T08:58:30.740Z,1044.00
2023-03-01T08:59:30.714Z,1048.00
2023-03-01T09:00:30.711Z,1056.00
2023-03-01T09:01:30.735Z,1056.00
2023-03-01T09:02:30.730Z,1068.00
2023-03-01T09:03:30.686Z,1076.00
2023-03-01T09:04:30.671Z,1088.00
2023-03-01T09:05:30.680Z,1100.00
2023-03-01T09:06:30.946Z,1116.00
2023-03-01T09:07:30.633Z,1128.00
2023-03-01T09:08:30.707Z,1136.00
2023-03-01T09:09:30.643Z,1152.00
2023-03-01T09:10:30.609Z,1160.00
2023-03-01T09:11:30.614Z,1176.00
2023-03-01T09:12:30.585Z,1184.00
2023-03-01T09:13:30.581Z,1192.00
2023-03-01T09:14:30.584Z,1200.00
2023-03-01T09:15:30.541Z,1204.00
2023-03-01T09:16:31.032Z,1216.00
2023-03-01T09:17:30.526Z,1220.00
2023-03-01T09:18:30.658Z,1224.00
2023-03-01T09:19:30.569Z,1228.00
2023-03-01T09:20:30.502Z,1236.00
2023-03-01T09:21:40.295Z,1244.00
2023-03-01T09:22:31.480Z,1260.00
2023-03-01T09:23:30.455Z,1268.00
2023-03-01T09:24:30.466Z,1280.00
2023-03-01T09:25:30.430Z,1288.00
2023-03-01T09:26:30.902Z,1300.00
2023-03-01T09:27:31.144Z,1308.00
2023-03-01T09:28:30.525Z,1320.00
2023-03-01T09:29:30.390Z,1328.00
2023-03-01T09:30:30.416Z,1332.00
2023-03-01T09:31:30.358Z,1340.00
2023-03-01T09:32:30.435Z,1344.00
2023-03-01T09:33:30.364Z,1348.00
2023-03-01T09:34:30.351Z,1356.00
2023-03-01T09:35:30.582Z,1372.00
2023-03-01T09:36:30.646Z,1376.00
2023-03-01T09:37:30.332Z,1380.00
2023-03-01T09:38:30.323Z,1388.00
2023-03-01T09:39:30.273Z,1396.00
2023-03-01T09:40:30.262Z,1408.00
2023-03-01T09:41:30.255Z,1404.00
2023-03-01T09:42:30.262Z,1420.00
2023-03-01T09:43:30.231Z,1428.00
2023-03-01T09:44:30.231Z,1440.00
2023-03-01T09:45:30.232Z,1448.00
2023-03-01T09:46:30.679Z,1452.00
2023-03-01T09:47:30.307Z,1456.00
2023-03-01T09:48:30.179Z,1460.00
2023-03-01T09:49:30.163Z,1468.00
2023-03-01T09:50:30.163Z,1468.00
2023-03-01T09:51:30.132Z,1476.00
2023-03-01T09:52:30.153Z,1484.00
2023-03-01T09:53:30.112Z,1492.00
2023-03-01T09:54:30.143Z,1496.00
2023-03-01T09:55:30.120Z,1508.00
2023-03-01T09:56:30.370Z,1516.00
2023-03-01T09:57:30.069Z,1524.00
2023-03-01T09:58:30.075Z,1520.00
2023-03-01T09:59:30.063Z,1532.00
2023-03-01T10:00:30.049Z,1540.00
2023-03-01T10:01:30.334Z,1544.00
2023-03-01T10:02:30.037Z,1552.00
2023-03-01T10:03:30.056Z,1556.00
2023-03-01T10:04:30.217Z,1560.00
2023-03-01T10:05:30.007Z,1564.00
2023-03-01T10:06:35.422Z,1572.00
2023-03-01T10:07:30.971Z,1572.00
2023-03-01T10:08:29.963Z,1576.00
2023-03-01T10:09:29.951Z,1584.00
2023-03-01T10:10:29.931Z,1584.00
2023-03-01T10:11:29.943Z,1596.00
2023-03-01T10:12:29.903Z,1596.00
2023-03-01T10:13:29.901Z,1600.00
2023-03-01T10:14:29.917Z,1612.00
2023-03-01T10:15:29.911Z,1616.00
2023-03-01T10:16:29.894Z,1620.00
2023-03-01T10:17:29.874Z,1616.00
2023-03-01T10:18:29.848Z,1624.00
2023-03-01T10:19:29.827Z,1632.00
2023-03-01T10:20:29.825Z,1632.00
2023-03-01T10:21:30.290Z,1632.00
2023-03-01T10:22:29.819Z,1640.00
2023-03-01T10:23:29.798Z,1640.00
2023-03-01T10:24:29.788Z,1644.00
2023-03-01T10:25:29.776Z,1644.00
2023-03-01T10:26:30.035Z,1652.00
2023-03-01T10:27:29.742Z,1652.00
2023-03-01T10:28:29.767Z,1652.00
2023-03-01T10:29:29.714Z,1652.00
2023-03-01T10:30:29.713Z,1668.00
2023-03-01T10:31:30.183Z,1668.00
2023-03-01T10:32:29.751Z,1680.00
2023-03-01T10:33:29.662Z,1684.00
2023-03-01T10:34:29.681Z,1692.00
2023-03-01T10:35:29.657Z,1704.00
2023-03-01T10:36:29.896Z,1708.00
2023-03-01T10:37:29.646Z,1712.00
2023-03-01T10:38:29.614Z,1724.00
2023-03-01T10:39:29.610Z,1712.00
2023-03-01T10:40:29.624Z,1712.00
2023-03-01T10:41:30.007Z,1732.00
2023-03-01T10:46:13.709Z,1760.00
2023-03-01T10:47:02.013Z,1752.00
2023-03-01T10:48:02.024Z,1760.00
2023-03-01T10:49:02.007Z,1772.00
2023-03-01T10:50:02.014Z,1768.00
2023-03-01T10:51:01.968Z,1768.00
2023-03-01T10:52:02.001Z,1772.00
2023-03-01T10:53:01.987Z,1780.00
2023-03-01T10:54:01.965Z,1788.00
2023-03-01T10:55:01.934Z,1792.00
2023-03-01T10:56:01.953Z,1800.00
2023-03-01T10:57:01.918Z,1804.00
2023-03-01T10:58:01.932Z,1804.00
2023-03-01T10:59:01.936Z,1804.00
2023-03-01T11:00:01.898Z,1812.00
2023-03-01T11:01:01.883Z,1808.00
2023-03-01T11:02:05.119Z,1812.00
2023-03-01T11:03:02.855Z,1816.00
2023-03-01T11:04:01.941Z,1824.00
2023-03-01T11:05:01.988Z,1832.00
2023-03-01T11:06:01.962Z,1832.00
2023-03-01T11:07:01.878Z,1836.00
2023-03-01T11:08:02.087Z,1836.00
2023-03-01T11:09:01.915Z,1836.00
2023-03-01T11:10:01.890Z,1848.00
2023-03-01T11:11:01.988Z,1852.00
2023-03-01T11:12:01.972Z,1852.00
2023-03-01T11:13:01.894Z,1848.00
2023-03-01T11:14:01.909Z,1852.00
2023-03-01T11:15:01.853Z,1856.00
2023-03-01T11:16:01.818Z,1876.00
2023-03-01T11:17:01.727Z,1876.00
2023-03-01T11:18:12.979Z,1876.00
2023-03-01T11:19:02.718Z,1880.00
2023-03-01T11:20:02.975Z,1880.00
2023-03-01T11:21:01.645Z,1880.00
2023-03-01T11:22:01.696Z,1892.00
2023-03-01T11:23:01.628Z,1892.00
2023-03-01T11:24:01.622Z,1900.00
2023-03-01T11:25:09.985Z,1904.00
2023-03-01T11:26:02.617Z,1900.00
2023-03-01T11:27:01.587Z,1904.00
2023-03-01T11:28:01.576Z,1896.00
2023-03-01T11:29:01.555Z,1896.00
2023-03-01T11:30:01.578Z,1904.00
2023-03-01T11:31:08.600Z,1916.00
2023-03-01T11:32:02.621Z,1916.00
2023-03-01T11:33:01.740Z,1912.00
2023-03-01T11:34:01.520Z,1912.00
2023-03-01T11:35:01.505Z,1916.00
2023-03-01T11:36:01.513Z,1920.00
2023-03-01T11:37:01.466Z,1920.00
2023-03-01T11:38:01.466Z,1924.00
2023-03-01T11:39:01.439Z,1924.00
2023-03-01T11:40:01.440Z,1924.00
2023-03-01T11:41:01.455Z,1932.00
2023-03-01T11:42:09.302Z,1940.00
2023-03-01T11:43:02.477Z,1940.00
2023-03-01T11:44:01.383Z,1944.00
2023-03-01T11:45:01.369Z,1948.00
2023-03-01T11:46:01.364Z,1944.00
2023-03-01T11:47:01.505Z,1952.00
2023-03-01T11:48:01.358Z,1952.00
2023-03-01T11:49:01.357Z,1956.00
2023-03-01T11:50:01.325Z,1956.00
2023-03-01T11:51:01.524Z,1956.00
2023-03-01T11:52:01.303Z,1960.00
2023-03-01T11:53:01.341Z,1960.00
2023-03-01T11:54:01.294Z,1948.00
2023-03-01T11:55:01.308Z,1956.00
2023-03-01T11:56:01.294Z,1952.00
2023-03-01T11:57:01.246Z,1956.00
2023-03-01T11:58:01.225Z,1960.00
2023-03-01T11:59:01.214Z,1960.00
2023-03-01T12:00:01.219Z,1956.00
2023-03-01T12:01:01.213Z,1956.00
2023-03-01T12:02:01.216Z,1960.00
2023-03-01T12:03:01.175Z,1964.00
2023-03-01T12:04:01.211Z,1968.00
2023-03-01T12:05:01.153Z,1968.00
2023-03-01T12:06:01.173Z,1964.00
2023-03-01T12:07:01.137Z,1964.00
2023-03-01T12:08:01.125Z,1964.00
2023-03-01T12:09:01.119Z,1964.00
2023-03-01T12:10:01.106Z,1968.00
2023-03-01T12:11:01.317Z,1964.00
2023-03-01T12:12:01.202Z,1968.00
2023-03-01T12:13:01.066Z,1972.00
2023-03-01T12:14:01.066Z,1976.00
2023-03-01T12:15:01.071Z,1980.00
2023-03-01T12:16:01.103Z,1976.00
2023-03-01T12:17:01.161Z,1976.00
2023-03-01T12:18:01.027Z,1972.00
2023-03-01T12:19:01.002Z,1972.00
2023-03-01T12:20:01.687Z,1980.00
2023-03-01T12:21:00.974Z,1988.00
2023-03-01T12:22:00.964Z,1992.00
2023-03-01T12:23:11.433Z,1992.00
2023-03-01T12:24:01.967Z,1996.00
2023-03-01T12:25:00.929Z,1988.00
2023-03-01T12:26:00.927Z,2000.00
2023-03-01T12:27:00.919Z,1996.00
2023-03-01T12:28:00.903Z,2004.00
2023-03-01T12:29:00.900Z,2008.00
2023-03-01T12:30:01.116Z,2000.00
2023-03-01T12:31:00.883Z,1996.00
2023-03-01T12:32:00.963Z,1996.00
2023-03-01T12:33:00.925Z,1996.00
2023-03-01T12:34:00.835Z,2012.00
2023-03-01T12:35:00.853Z,2016.00
2023-03-01T12:36:00.878Z,2012.00
2023-03-01T12:37:00.796Z,2012.00
2023-03-01T12:38:00.802Z,2012.00
2023-03-01T12:39:00.776Z,2012.00
2023-03-01T12:40:00.888Z,2004.00
2023-03-01T12:41:00.762Z,2020.00
2023-03-01T12:42:00.731Z,2020.00
2023-03-01T12:43:00.730Z,2036.00
2023-03-01T12:44:00.734Z,2036.00
2023-03-01T12:45:00.732Z,2052.00
2023-03-01T12:46:00.715Z,2076.00
2023-03-01T12:47:00.688Z,2076.00
2023-03-01T12:48:00.700Z,2080.00
2023-03-01T12:49:00.678Z,2080.00